createdAt,value
2019-04-05T00:03:14.762Z,97.90
2019-04-05T00:08:21.912Z,98.90
2019-04-05T00:13:29.559Z,99.90
2019-04-05T00:18:37.006Z,98.80
2019-04-05T00:23:44.101Z,99.70
2019-04-05T00:28:51.898Z,98.90
2019-04-05T00:33:59.767Z,99.60
2019-04-05T00:39:09.128Z,98.80
2019-04-05T00:44:16.171Z,99.90
2019-04-05T00:49:23.349Z,99.90
2019-04-05T00:54:30.415Z,99.50
2019-04-05T00:59:37.486Z,99.90
2019-04-05T01:04:44.563Z,99.90
2019-04-05T01:09:52.020Z,99.90
2019-04-05T01:14:59.263Z,99.90
2019-04-05T01:20:07.737Z,99.90
2019-04-05T01:25:15.117Z,99.90
2019-04-05T01:30:23.459Z,99.90
2019-04-05T01:35:30.706Z,98.70
2019-04-05T01:40:40.959Z,99.30
2019-04-05T01:45:54.005Z,99.90
2019-04-05T01:50:57.221Z,99.90
2019-04-05T01:56:04.858Z,99.90
2019-04-05T02:01:12.511Z,99.90
2019-04-05T02:06:19.832Z,99.90
2019-04-05T02:11:27.983Z,99.60
2019-04-05T02:16:35.976Z,99.90
2019-04-05T02:21:43.098Z,99.90
2019-04-05T02:26:50.252Z,99.90
2019-04-05T02:31:57.430Z,99.90
2019-04-05T02:37:04.586Z,99.90
2019-04-05T02:42:12.842Z,99.90
2019-04-05T02:47:21.114Z,99.90
2019-04-05T02:52:30.499Z,99.90
2019-04-05T02:57:37.961Z,99.90
2019-04-05T03:02:45.008Z,99.90
2019-04-05T03:07:52.611Z,99.90
2019-04-05T03:12:59.793Z,99.90
2019-04-05T03:18:07.227Z,99.90
2019-04-05T03:23:15.268Z,99.90
2019-04-05T03:28:23.657Z,99.90
2019-04-05T03:33:30.924Z,99.90
2019-04-05T03:38:38.530Z,99.90
2019-04-05T03:43:46.874Z,99.90
2019-04-05T03:48:54.530Z,99.90
2019-04-05T03:54:01.816Z,99.90
2019-04-05T03:59:09.063Z,99.90
2019-04-05T04:04:16.836Z,99.90
2019-04-05T04:09:24.031Z,99.90
2019-04-05T04:14:31.193Z,99.90
2019-04-05T04:19:38.500Z,99.90
2019-04-05T04:24:45.677Z,99.90
2019-04-05T04:29:53.842Z,99.90
2019-04-05T04:35:01.026Z,99.90
2019-04-05T04:40:08.822Z,99.90
2019-04-05T04:45:16.516Z,99.90
2019-04-05T04:50:24.883Z,99.90
2019-04-05T04:55:32.263Z,99.90
2019-04-05T05:00:39.434Z,99.90
2019-04-05T05:05:46.686Z,99.90
2019-04-05T05:10:54.026Z,99.90
2019-04-05T05:16:01.274Z,99.90
2019-04-05T05:21:09.544Z,99.80
2019-04-05T05:26:17.294Z,99.90
2019-04-05T05:31:25.589Z,99.90
2019-04-05T05:36:33.058Z,99.90
2019-04-05T05:41:40.263Z,99.90
2019-04-05T05:46:47.407Z,99.90
2019-04-05T05:51:55.210Z,99.20
2019-04-05T05:57:02.589Z,99.90
2019-04-05T06:02:09.835Z,99.70
2019-04-05T06:07:19.947Z,97.30
2019-04-05T06:12:25.643Z,92.90
2019-04-05T06:17:32.693Z,93.90
2019-04-05T06:22:39.858Z,95.70
2019-04-05T06:27:47.199Z,94.80
2019-04-05T06:32:54.275Z,95.60
2019-04-05T06:38:01.403Z,88.00
2019-04-05T06:43:08.524Z,95.50
2019-04-05T06:48:19.590Z,90.60
2019-04-05T06:53:24.807Z,94.40
2019-04-05T06:58:31.906Z,78.50
2019-04-05T07:03:39.073Z,94.10
2019-04-05T07:08:53.733Z,87.00
2019-04-05T07:13:55.442Z,74.50
2019-04-05T07:19:02.588Z,93.10
2019-04-05T07:24:09.653Z,94.10
2019-04-05T07:29:17.942Z,90.90
2019-04-05T07:34:25.086Z,94.30
2019-04-05T07:39:32.237Z,92.90
2019-04-05T07:44:39.414Z,79.00
2019-04-05T07:49:46.712Z,78.40
2019-04-05T07:54:54.083Z,90.80
2019-04-05T08:00:02.284Z,91.00
2019-04-05T08:05:10.719Z,75.80
2019-04-05T08:10:18.091Z,91.40
2019-04-05T08:15:25.684Z,91.30
2019-04-05T08:20:32.721Z,87.90
2019-04-05T08:25:41.364Z,82.90
2019-04-05T08:30:48.602Z,87.10
2019-04-05T08:35:55.652Z,87.90
2019-04-05T08:41:02.855Z,65.10
2019-04-05T08:46:10.121Z,76.00
2019-04-05T08:51:17.964Z,87.60
2019-04-05T08:56:28.793Z,83.00
2019-04-05T09:01:43.858Z,81.00
2019-04-05T09:06:56.526Z,81.60
2019-04-05T09:12:08.863Z,57.60
2019-04-05T09:17:20.095Z,78.80
2019-04-05T09:22:31.232Z,56.50
2019-04-05T09:27:40.748Z,62.90
2019-04-05T09:32:51.562Z,77.60
2019-04-05T09:38:01.593Z,77.40
2019-04-05T09:43:15.587Z,72.30
2019-04-05T09:48:24.805Z,82.10
2019-04-05T09:53:32.871Z,64.50
2019-04-05T09:58:39.950Z,66.30
2019-04-05T10:03:47.138Z,69.40
2019-04-05T10:08:54.486Z,64.70
2019-04-05T10:14:01.548Z,59.10
2019-04-05T10:19:08.636Z,57.90
2019-04-05T10:24:15.775Z,77.70
2019-04-05T10:29:23.329Z,64.30
2019-04-05T10:34:30.353Z,58.20
2019-04-05T10:39:37.434Z,53.10
2019-04-05T10:44:44.608Z,50.80
2019-04-05T10:50:02.198Z,53.50
2019-04-05T10:55:00.761Z,49.40
2019-04-05T11:00:12.025Z,53.70
2019-04-05T11:05:18.998Z,54.60
2019-04-05T11:10:26.476Z,49.10
2019-04-05T11:15:33.438Z,50.70
2019-04-05T11:20:40.485Z,52.20
2019-04-05T11:25:47.567Z,48.00
2019-04-05T11:30:54.594Z,47.60
2019-04-05T11:36:01.950Z,48.00
2019-04-05T11:41:09.358Z,54.50
2019-04-05T11:46:18.322Z,50.70
2019-04-05T11:51:25.477Z,53.80
2019-04-05T11:56:33.776Z,50.80
2019-04-05T12:01:48.527Z,46.10
2019-04-05T12:06:55.985Z,49.20
2019-04-05T12:12:03.187Z,45.90
2019-04-05T12:17:11.507Z,47.30
2019-04-05T12:22:20.066Z,41.20
2019-04-05T12:27:28.299Z,44.00
2019-04-05T12:32:41.043Z,44.80
2019-04-05T12:37:50.541Z,43.30
2019-04-05T12:42:54.267Z,42.50
2019-04-05T12:48:01.746Z,40.00
2019-04-05T12:53:08.773Z,40.30
2019-04-05T12:58:17.579Z,40.50
2019-04-05T13:03:24.635Z,41.10
2019-04-05T13:08:31.831Z,35.70
2019-04-05T13:13:38.930Z,36.60
2019-04-05T13:18:46.078Z,35.70
2019-04-05T13:23:53.246Z,34.80
2019-04-05T13:29:00.321Z,36.00
2019-04-05T13:34:07.435Z,35.60
2019-04-05T13:39:14.425Z,37.60
2019-04-05T13:44:21.490Z,34.50
2019-04-05T13:49:28.661Z,33.00
2019-04-05T13:54:40.338Z,30.70
2019-04-05T13:59:47.979Z,36.40
2019-04-05T14:04:55.162Z,36.90
2019-04-05T14:10:02.355Z,38.80
2019-04-05T14:15:12.063Z,33.40
2019-04-05T14:20:19.914Z,33.00
2019-04-05T14:25:30.008Z,33.20
2019-04-05T14:30:36.797Z,32.40
2019-04-05T14:35:43.966Z,35.70
2019-04-05T14:40:51.048Z,32.50
2019-04-05T14:45:58.245Z,33.40
2019-04-05T14:51:06.718Z,33.90
2019-04-05T14:56:13.901Z,35.30
2019-04-05T15:01:20.984Z,34.30
2019-04-05T15:06:28.179Z,35.90
2019-04-05T15:11:35.793Z,32.70
2019-04-05T15:16:42.867Z,37.10
2019-04-05T15:21:50.273Z,36.00
2019-04-05T15:26:57.696Z,37.70
2019-04-05T15:32:06.176Z,34.10
2019-04-05T15:37:15.872Z,37.50
2019-04-05T15:42:22.195Z,34.40
2019-04-05T15:47:31.761Z,41.10
2019-04-05T15:52:38.122Z,37.40
2019-04-05T15:57:45.202Z,36.20
2019-04-05T16:02:52.378Z,41.50
2019-04-05T16:07:59.524Z,38.80
2019-04-05T16:13:08.242Z,42.00
2019-04-05T16:18:17.697Z,41.20
2019-04-05T16:23:27.256Z,41.50
2019-04-05T16:28:35.502Z,42.80
2019-04-05T16:33:42.595Z,41.00
2019-04-05T16:38:51.068Z,47.00
2019-04-05T16:44:00.119Z,41.70
2019-04-05T16:49:07.210Z,45.70
2019-04-05T16:54:14.442Z,42.90
2019-04-05T16:59:21.936Z,44.70
2019-04-05T17:04:29.087Z,46.30
2019-04-05T17:09:36.154Z,49.80
2019-04-05T17:14:43.194Z,47.20
2019-04-05T17:19:50.262Z,47.60
2019-04-05T17:24:57.310Z,49.70
2019-04-05T17:30:05.196Z,52.70
2019-04-05T17:35:12.425Z,57.10
2019-04-05T17:40:31.255Z,55.60
2019-04-05T17:45:38.298Z,57.90
2019-04-05T17:50:45.323Z,55.60
2019-04-05T17:55:52.582Z,60.70
2019-04-05T18:00:59.794Z,59.30
2019-04-05T18:06:06.868Z,69.10
2019-04-05T18:11:14.236Z,65.70
2019-04-05T18:16:21.580Z,90.50
2019-04-05T18:21:28.656Z,94.30
2019-04-05T18:26:36.012Z,88.80
2019-04-05T18:31:43.083Z,92.70
2019-04-05T18:36:50.166Z,91.60
2019-04-05T18:41:57.219Z,91.30
2019-04-05T18:47:04.266Z,94.00
2019-04-05T18:52:11.436Z,92.80
2019-04-05T18:57:18.567Z,98.90
2019-04-05T19:02:25.705Z,97.50
2019-04-05T19:07:32.777Z,99.90
2019-04-05T19:12:40.041Z,96.30
2019-04-05T19:17:47.111Z,98.70
2019-04-05T19:22:55.434Z,97.00
2019-04-05T19:28:02.499Z,99.90
2019-04-05T19:48:37.516Z,98.10
2019-04-05T19:53:44.548Z,97.50
2019-04-05T19:58:51.614Z,98.50
2019-04-05T20:03:59.058Z,97.70
2019-04-05T20:09:07.701Z,97.70
2019-04-05T20:14:14.755Z,96.50
2019-04-05T20:19:21.683Z,99.90
2019-04-05T20:24:28.737Z,98.50
2019-04-05T20:29:35.991Z,98.60
2019-04-05T20:34:43.256Z,97.80
2019-04-05T20:39:51.351Z,98.90
2019-04-05T20:44:58.551Z,97.70
2019-04-05T20:50:06.951Z,99.90
2019-04-05T20:55:15.072Z,99.90
2019-04-05T21:00:22.155Z,99.10
2019-04-05T21:05:29.227Z,99.90
2019-04-05T21:10:36.471Z,99.50
2019-04-05T21:15:43.638Z,97.10
2019-04-05T21:20:51.913Z,99.90
2019-04-05T21:25:59.087Z,98.40
2019-04-05T21:31:06.167Z,99.90
2019-04-05T21:36:14.331Z,99.90
2019-04-05T21:41:21.610Z,99.90
2019-04-05T21:46:29.038Z,99.90
2019-04-05T21:51:36.095Z,99.30
2019-04-05T21:56:45.462Z,99.20
2019-04-05T22:01:52.008Z,99.90
2019-04-05T22:07:00.299Z,99.20
2019-04-05T22:12:07.239Z,99.90
2019-04-05T22:17:14.207Z,99.10
2019-04-05T22:22:21.137Z,99.90
2019-04-05T22:27:28.410Z,99.90
2019-04-05T22:32:35.550Z,99.90
2019-04-05T22:37:42.626Z,99.90
2019-04-05T22:42:49.901Z,99.90
2019-04-05T22:47:56.949Z,99.90
2019-04-05T22:53:04.143Z,99.90
2019-04-05T22:58:11.270Z,99.90
2019-04-05T23:03:18.402Z,99.80
2019-04-05T23:08:25.639Z,99.90
2019-04-05T23:13:32.824Z,99.90
2019-04-05T23:18:39.875Z,99.90
2019-04-05T23:23:47.391Z,99.90
2019-04-05T23:28:54.587Z,99.90
2019-04-05T23:34:01.671Z,99.90
2019-04-05T23:39:08.683Z,99.90
2019-04-05T23:44:15.752Z,99.90
2019-04-05T23:49:22.803Z,99.90
2019-04-05T23:54:30.312Z,99.90
2019-04-05T23:59:37.366Z,99.90
